AKDT,Max TemperatureF,Mean TemperatureF,Min TemperatureF,Max Dew PointF,MeanDew PointF,Min DewpointF,Max Humidity, Mean Humidity, Min Humidity, Max Sea Level PressureIn, Mean Sea Level PressureIn, Min Sea Level PressureIn, Max VisibilityMiles, Mean VisibilityMiles, Min VisibilityMiles, Max Wind SpeedMPH, Mean Wind SpeedMPH, Max Gust SpeedMPH,PrecipitationIn, CloudCover, Events, WindDirDegrees
2013-4-1,16,5,-6,8,0,-8,0,0,0,30.27,30.23,30.19,10,10,10,7,2,10,T,5,,45
2013-4-2,23,12,1,15,8,-1,0,0,0,30.29,30.22,30.20,10,10,10,17,7,20,0.00,4,Snow,53
2013-4-3,24,15,6,12,8,1,0,0,0,30.50,30.43,30.30,10,10,7,28,17,39,0.00,0,,77
2013-4-4,26,19,11,12,5,0,0,0,0,30.52,30.44,30.27,10,10,10,24,14,29,0.00,0,,60
2013-4-5,19,12,4,5,0,-9,0,0,0,30.27,30.20,30.12,10,10,10,32,16,39,0.00,1,,36
2013-4-6,8,2,-5,-4,-11,-16,0,0,0,30.13,30.06,29.96,10,10,10,21,14,24,0.00,0,,25
2013-4-7,6,-3,-12,-7,-11,-17,0,0,0,29.99,29.96,29.94,10,10,9,10,4,12,0.00,0,,325
2013-4-8,3,-7,-16,-5,-14,-21,0,0,0,30.02,29.97,29.86,10,10,9,15,5,22,0.00,1,,317
2013-4-9,10,1,-8,0,-7,-16,0,0,0,29.84,29.57,29.43,10,9,1,30,16,37,T,3,Snow,359
2013-4-10,9,5,0,1,-1,-8,0,0,0,30.04,29.78,29.50,10,7,2,13,5,23,0.02,8,Snow,328
2013-4-11,9,0,-9,3,-4,-11,0,0,0,30.37,30.24,30.05,10,10,9,12,5,13,0.00,0,Snow,235
2013-4-12,3,-5,-12,-1,-8,-15,0,0,0,30.45,30.42,30.38,10,9,4,14,6,15,0.00,2,,157
2013-4-13,11,2,-7,9,1,-11,0,0,0,30.45,30.38,30.35,10,5,1,24,15,32,0.01,7,Snow,109
2013-4-14,15,5,-6,7,2,-8,0,0,0,30.79,30.62,30.45,10,9,2,18,7,23,0.00,2,Snow,340
2013-4-15,7,0,-7,1,-4,-8,0,0,0,30.80,30.77,30.69,10,10,5,7,2,10,0.00,0,,247
2013-4-16,10,-1,-11,3,-6,-15,0,0,0,30.68,30.57,30.49,10,7,1,6,0,8,0.00,2,Fog,244
2013-4-17,19,7,-6,9,-1,-9,0,0,0,30.60,30.56,30.50,10,10,3,8,2,9,0.00,0,,314
2013-4-18,16,5,-6,10,2,-9,0,0,0,30.58,30.56,30.54,10,10,10,12,4,14,0.00,0,,214
2013-4-19,17,6,-5,10,1,-8,0,0,0,30.60,30.57,30.47,10,6,0,8,2,9,0.00,5,Fog,129
2013-4-20,19,10,1,13,6,-1,0,0,0,30.49,30.46,30.44,10,8,1,17,6,22,0.00,3,,275
2013-4-21,17,9,0,13,6,-1,0,0,0,30.49,30.47,30.42,10,10,10,20,6,22,0.00,0,,221
2013-4-22,29,17,5,23,13,2,0,0,0,30.42,30.36,30.32,10,10,3,22,14,25,0.00,6,Snow,151
2013-4-23,30,26,21,27,24,18,0,0,0,30.34,30.29,30.21,10,6,0,21,13,25,0.14,8,Fog-Snow,218
2013-4-24,33,26,18,28,25,14,0,0,0,30.41,30.26,30.20,10,6,1,21,13,25,0.12,5,Snow,288
2013-4-25,24,18,11,20,13,5,0,0,0,30.44,30.33,30.13,10,9,3,23,12,26,0.00,2,,317
2013-4-26,28,24,20,25,20,16,0,0,0,30.11,29.89,29.83,10,5,0,35,13,39,0.04,6,Snow,289
2013-4-27,23,19,15,16,13,8,0,0,0,30.34,30.25,30.04,10,10,9,28,16,33,0.00,1,,328
2013-4-28,24,17,9,20,16,8,0,0,0,30.36,30.33,30.26,10,8,2,23,16,26,0.00,7,Snow,287
2013-4-29,23,19,15,21,17,10,0,0,0,30.26,30.21,30.18,10,9,4,16,11,18,T,6,Snow,289
2013-4-30,23,15,7,15,9,3,0,0,0,30.21,30.18,30.13,10,10,10,14,6,17,0.00,0,,335